Koushinmaru No.5 — JL6695 — position and weather

sailwx.info

Track history (hours):
 
Tides and Currents Weather Stations Pressure Air Temp Water Temp Dewpoint Dewpoint Depression Visibility Wind Speed Wind Dir Waves Ship Positions

Koushinmaru No.5

Last reported at 2017-Jan-20 01:33 UTC. Time now 2017-Jan-20 05:50 UTC.
Position N 35°38' E 139°48'.

Length 75 m; draft 4.9 m.

Type: Cargo ship. MMSI: 431301703.

Date/timePositionNaut miles runAvg speedWind from/ knotsBaromVisibWave heightAir tempDewpointWater temp
2017-Jan-20 01:33N 35°38' E 139°48'5 2.3
2017-Jan-19 23:33N 35°35' E 139°53'0 0.0
2017-Jan-19 22:33N 35°35' E 139°53'0 0.0
2017-Jan-19 21:33N 35°35' E 139°53'0 0.0
2017-Jan-19 20:33N 35°35' E 139°53'0 0.0
2017-Jan-19 19:33N 35°35' E 139°53'0 0.0
2017-Jan-19 18:33N 35°35' E 139°53'0 0.0
2017-Jan-19 17:33N 35°35' E 139°53'0 0.0
2017-Jan-19 16:33N 35°35' E 139°53'0 0.0
2017-Jan-19 15:08N 35°35' E 139°53'0 0.0
2017-Jan-19 14:33N 35°35' E 139°53'0 0.0
2017-Jan-19 11:33N 35°35' E 139°53'0 0.1
2017-Jan-19 10:33N 35°35' E 139°53'9 9.0
2017-Jan-19 09:33N 35°27' E 139°49'10 9.8
2017-Jan-19 08:33N 35°17' E 139°45'  
2017-Jan-14 05:07N 34°37' E 134°55'7 7.4
2017-Jan-14 04:10N 34°36' E 135°03'6 9.9
2017-Jan-14 03:33N 34°35' E 135°10'12 2.3
2017-Jan-13 22:10N 34°31' E 135°24'0 0.0
2017-Jan-13 20:10N 34°31' E 135°24'0 0.0
2017-Jan-13 19:28N 34°31' E 135°24'0 0.0
2017-Jan-13 18:28N 34°31' E 135°24'0 0.0
2017-Jan-13 17:28N 34°31' E 135°24'0 0.0
2017-Jan-13 16:28N 34°31' E 135°24'0 0.0
2017-Jan-13 15:28N 34°31' E 135°24'0 0.0
2017-Jan-13 14:22N 34°31' E 135°24'0 0.0
2017-Jan-13 13:28N 34°31' E 135°24'0 0.0
2017-Jan-13 12:28N 34°31' E 135°24'0 0.0
2017-Jan-13 11:22N 34°31' E 135°24'0 0.0
2017-Jan-13 10:28N 34°31' E 135°24'0 0.0
2017-Jan-13 09:16N 34°31' E 135°24'0 0.0
2017-Jan-13 08:28N 34°31' E 135°24'0 0.0
2017-Jan-13 07:28N 34°31' E 135°24'0 0.0
2017-Jan-13 06:33N 34°31' E 135°24'0 0.0
2017-Jan-13 05:32N 34°31' E 135°24'0 0.0
2017-Jan-13 04:33N 34°31' E 135°24'0 0.0
2017-Jan-13 03:33N 34°31' E 135°24'0 0.0
2017-Jan-13 02:31N 34°31' E 135°24'0 0.0
2017-Jan-13 01:33N 34°31' E 135°24'0 0.0
2017-Jan-13 00:33N 34°31' E 135°24'0 0.0
2017-Jan-12 23:33N 34°31' E 135°24'1 0.9
2017-Jan-12 22:32N 34°32' E 135°24'3 3.2
2017-Jan-12 21:33N 34°34' E 135°22'0 0.0
2017-Jan-12 20:33N 34°34' E 135°22'0 0.0
2017-Jan-12 19:33N 34°34' E 135°22'0 0.0
2017-Jan-12 18:33N 34°34' E 135°22'0 0.0
2017-Jan-12 17:33N 34°34' E 135°22'0 0.1
2017-Jan-12 16:33N 34°34' E 135°22'0 0.0
2017-Jan-12 15:33N 34°34' E 135°22'0 0.1
2017-Jan-12 14:33N 34°34' E 135°22'0 0.1
2017-Jan-12 13:32N 34°34' E 135°22'0 0.0
2017-Jan-12 12:33N 34°34' E 135°22'0 0.0
2017-Jan-12 11:33N 34°34' E 135°22'0 0.0
2017-Jan-12 10:33N 34°34' E 135°22'4 4.2
2017-Jan-12 09:33N 34°38' E 135°23'4 3.7
2017-Jan-12 08:33N 34°39' E 135°28'0 0.0
2017-Jan-12 07:33N 34°39' E 135°28'0 0.0
2017-Jan-12 06:27N 34°39' E 135°28'0 0.0
2017-Jan-12 05:31N 34°39' E 135°28'0 0.0
2017-Jan-12 02:32N 34°39' E 135°28'0 0.0
2017-Jan-12 01:25N 34°39' E 135°28'0 0.0
2017-Jan-12 00:27N 34°39' E 135°28'  
Track history (hours):
 
Tides and Currents Weather Stations Pressure Air Temp Water Temp Dewpoint Dewpoint Depression Visibility Wind Speed Wind Dir Waves Ship Positions

Koushinmaru No.5

Last reported at 2017-Jan-20 01:33 UTC. Time now 2017-Jan-20 05:50 UTC.
Position N 35°38' E 139°48'.

Length 75 m; draft 4.9 m.

Type: Cargo ship. MMSI: 431301703.

Date/timePositionNaut miles runAvg speedWind from/ knotsBaromVisibWave heightAir tempDewpointWater temp
2017-Jan-20 01:33N 35°38' E 139°48'5 2.3
2017-Jan-19 23:33N 35°35' E 139°53'0 0.0
2017-Jan-19 22:33N 35°35' E 139°53'0 0.0
2017-Jan-19 21:33N 35°35' E 139°53'0 0.0
2017-Jan-19 20:33N 35°35' E 139°53'0 0.0
2017-Jan-19 19:33N 35°35' E 139°53'0 0.0
2017-Jan-19 18:33N 35°35' E 139°53'0 0.0
2017-Jan-19 17:33N 35°35' E 139°53'0 0.0
2017-Jan-19 16:33N 35°35' E 139°53'0 0.0
2017-Jan-19 15:08N 35°35' E 139°53'0 0.0
2017-Jan-19 14:33N 35°35' E 139°53'0 0.0
2017-Jan-19 11:33N 35°35' E 139°53'0 0.1
2017-Jan-19 10:33N 35°35' E 139°53'9 9.0
2017-Jan-19 09:33N 35°27' E 139°49'10 9.8
2017-Jan-19 08:33N 35°17' E 139°45'  
2017-Jan-14 05:07N 34°37' E 134°55'7 7.4
2017-Jan-14 04:10N 34°36' E 135°03'6 9.9
2017-Jan-14 03:33N 34°35' E 135°10'12 2.3
2017-Jan-13 22:10N 34°31' E 135°24'0 0.0
2017-Jan-13 20:10N 34°31' E 135°24'0 0.0
2017-Jan-13 19:28N 34°31' E 135°24'0 0.0
2017-Jan-13 18:28N 34°31' E 135°24'0 0.0
2017-Jan-13 17:28N 34°31' E 135°24'0 0.0
2017-Jan-13 16:28N 34°31' E 135°24'0 0.0
2017-Jan-13 15:28N 34°31' E 135°24'0 0.0
2017-Jan-13 14:22N 34°31' E 135°24'0 0.0
2017-Jan-13 13:28N 34°31' E 135°24'0 0.0
2017-Jan-13 12:28N 34°31' E 135°24'0 0.0
2017-Jan-13 11:22N 34°31' E 135°24'0 0.0
2017-Jan-13 10:28N 34°31' E 135°24'0 0.0
2017-Jan-13 09:16N 34°31' E 135°24'0 0.0
2017-Jan-13 08:28N 34°31' E 135°24'0 0.0
2017-Jan-13 07:28N 34°31' E 135°24'0 0.0
2017-Jan-13 06:33N 34°31' E 135°24'0 0.0
2017-Jan-13 05:32N 34°31' E 135°24'0 0.0
2017-Jan-13 04:33N 34°31' E 135°24'0 0.0
2017-Jan-13 03:33N 34°31' E 135°24'0 0.0
2017-Jan-13 02:31N 34°31' E 135°24'0 0.0
2017-Jan-13 01:33N 34°31' E 135°24'0 0.0
2017-Jan-13 00:33N 34°31' E 135°24'0 0.0
2017-Jan-12 23:33N 34°31' E 135°24'1 0.9
2017-Jan-12 22:32N 34°32' E 135°24'3 3.2
2017-Jan-12 21:33N 34°34' E 135°22'0 0.0
2017-Jan-12 20:33N 34°34' E 135°22'0 0.0
2017-Jan-12 19:33N 34°34' E 135°22'0 0.0
2017-Jan-12 18:33N 34°34' E 135°22'0 0.0
2017-Jan-12 17:33N 34°34' E 135°22'0 0.1
2017-Jan-12 16:33N 34°34' E 135°22'0 0.0
2017-Jan-12 15:33N 34°34' E 135°22'0 0.1
2017-Jan-12 14:33N 34°34' E 135°22'0 0.1
2017-Jan-12 13:32N 34°34' E 135°22'0 0.0
2017-Jan-12 12:33N 34°34' E 135°22'0 0.0
2017-Jan-12 11:33N 34°34' E 135°22'0 0.0
2017-Jan-12 10:33N 34°34' E 135°22'4 4.2
2017-Jan-12 09:33N 34°38' E 135°23'4 3.7
2017-Jan-12 08:33N 34°39' E 135°28'0 0.0
2017-Jan-12 07:33N 34°39' E 135°28'0 0.0
2017-Jan-12 06:27N 34°39' E 135°28'0 0.0
2017-Jan-12 05:31N 34°39' E 135°28'0 0.0
2017-Jan-12 02:32N 34°39' E 135°28'0 0.0
2017-Jan-12 01:25N 34°39' E 135°28'0 0.0
2017-Jan-12 00:27N 34°39' E 135°28'  

Dump ship's entire track history